createdAt,value
2023-03-06T00:00:52.033Z,44.01
2023-03-06T00:03:36.851Z,42.76
2023-03-06T00:06:21.455Z,41.55
2023-03-06T00:09:06.325Z,40.67
2023-03-06T00:11:50.998Z,40.95
2023-03-06T00:14:35.846Z,41.62
2023-03-06T00:17:20.569Z,42.24
2023-03-06T00:20:05.461Z,41.63
2023-03-06T00:22:50.288Z,42.45
2023-03-06T00:25:35.058Z,42.74
2023-03-06T00:28:19.878Z,43.32
2023-03-06T00:31:04.532Z,43.07
2023-03-06T00:33:49.429Z,43.52
2023-03-06T00:36:34.138Z,43.43
2023-03-06T00:39:18.957Z,43.51
2023-03-06T00:42:03.699Z,43.37
2023-03-06T00:44:48.624Z,43.27
2023-03-06T00:47:33.415Z,42.27
2023-03-06T00:50:18.177Z,42.21
2023-03-06T00:53:03.045Z,42.55
2023-03-06T00:55:47.851Z,41.27
2023-03-06T00:58:32.746Z,41.71
2023-03-06T01:01:17.471Z,42.06
2023-03-06T01:04:02.721Z,41.95
2023-03-06T01:06:47.292Z,41.53
2023-03-06T01:09:32.036Z,41.60
2023-03-06T01:12:16.690Z,41.99
2023-03-06T01:15:01.390Z,42.28
2023-03-06T01:17:46.297Z,42.52
2023-03-06T01:20:31.045Z,42.21
2023-03-06T01:23:15.773Z,41.44
2023-03-06T01:26:00.604Z,41.70
2023-03-06T01:28:45.412Z,41.03
2023-03-06T01:31:30.139Z,41.40
2023-03-06T01:34:14.931Z,42.55
2023-03-06T01:36:59.724Z,42.96
2023-03-06T01:39:44.560Z,43.18
2023-03-06T01:42:30.401Z,43.72
2023-03-06T01:45:16.893Z,42.75
2023-03-06T01:48:01.725Z,43.04
2023-03-06T01:50:46.488Z,43.59
2023-03-06T01:53:31.276Z,44.35
2023-03-06T01:56:15.946Z,43.91
2023-03-06T01:59:00.805Z,44.16
2023-03-06T02:01:45.451Z,44.49
2023-03-06T02:04:30.333Z,44.95
2023-03-06T02:07:14.960Z,44.67
2023-03-06T02:09:59.676Z,43.85
2023-03-06T02:12:44.371Z,44.34
2023-03-06T02:15:29.094Z,43.97
2023-03-06T02:18:13.802Z,43.81
2023-03-06T02:20:58.558Z,42.67
2023-03-06T02:23:43.420Z,41.84
2023-03-06T02:26:28.085Z,41.14
2023-03-06T02:29:12.908Z,41.68
2023-03-06T02:31:57.645Z,42.35
2023-03-06T02:34:42.497Z,42.76
2023-03-06T02:37:27.082Z,43.01
2023-03-06T02:40:11.921Z,43.25
2023-03-06T02:42:56.766Z,43.13
2023-03-06T02:45:41.780Z,43.68
2023-03-06T02:48:26.725Z,43.83
2023-03-06T02:51:11.376Z,44.34
2023-03-06T02:53:56.136Z,44.21
2023-03-06T02:56:40.803Z,44.71
2023-03-06T02:59:25.602Z,44.12
2023-03-06T03:02:10.254Z,43.63
2023-03-06T03:04:55.046Z,42.98
2023-03-06T03:07:39.762Z,42.98
2023-03-06T03:10:24.730Z,42.90
2023-03-06T03:13:09.538Z,42.76
2023-03-06T03:15:54.265Z,42.87
2023-03-06T03:18:38.886Z,42.66
2023-03-06T03:21:23.545Z,42.81
2023-03-06T03:24:08.421Z,43.15
2023-03-06T03:26:53.074Z,44.18
2023-03-06T03:29:37.901Z,44.11
2023-03-06T03:32:22.598Z,44.13
2023-03-06T03:35:07.509Z,44.07
2023-03-06T03:37:52.264Z,43.09
2023-03-06T03:40:37.160Z,43.22
2023-03-06T03:43:21.936Z,43.23
2023-03-06T03:46:06.758Z,44.80
2023-03-06T03:48:51.616Z,44.32
2023-03-06T03:51:36.326Z,44.00
2023-03-06T03:54:21.392Z,42.95
2023-03-06T03:57:06.497Z,41.70
2023-03-06T03:59:51.416Z,41.81
2023-03-06T04:02:36.057Z,41.44
2023-03-06T04:05:20.926Z,41.02
2023-03-06T04:08:05.665Z,41.15
2023-03-06T04:10:50.426Z,40.76
2023-03-06T04:13:35.339Z,40.81
2023-03-06T04:16:20.198Z,40.93
2023-03-06T04:19:05.016Z,41.31
2023-03-06T04:21:49.818Z,41.13
2023-03-06T04:24:34.473Z,41.38
2023-03-06T04:27:19.374Z,41.00
2023-03-06T04:30:04.096Z,41.22
2023-03-06T04:32:48.793Z,41.19
2023-03-06T04:35:33.679Z,41.50
2023-03-06T04:38:18.417Z,41.50
2023-03-06T04:41:03.261Z,41.42
2023-03-06T04:43:48.658Z,41.56
2023-03-06T04:46:33.269Z,41.99
2023-03-06T04:49:18.096Z,42.43
2023-03-06T04:52:02.735Z,41.46
2023-03-06T04:54:47.546Z,40.50
2023-03-06T04:57:32.264Z,39.96
2023-03-06T05:00:17.070Z,40.08
2023-03-06T05:03:01.885Z,40.34
2023-03-06T05:05:46.561Z,40.27
2023-03-06T05:08:31.383Z,40.55
2023-03-06T05:11:16.051Z,40.78
2023-03-06T05:14:00.935Z,40.87
2023-03-06T05:16:45.528Z,40.59
2023-03-06T05:19:30.345Z,40.49
2023-03-06T05:22:15.127Z,40.78
2023-03-06T05:24:59.989Z,40.65
2023-03-06T05:27:44.670Z,40.74
2023-03-06T05:30:29.529Z,40.81
2023-03-06T05:33:14.168Z,41.46
2023-03-06T05:35:59.170Z,41.49
2023-03-06T05:38:43.836Z,41.46
2023-03-06T05:41:28.572Z,41.99
2023-03-06T05:44:13.414Z,41.23
2023-03-06T05:46:58.233Z,41.64
2023-03-06T05:49:43.035Z,41.62
2023-03-06T05:52:27.800Z,41.88
2023-03-06T05:55:12.574Z,42.30
2023-03-06T05:57:57.379Z,41.78
2023-03-06T06:00:42.000Z,40.63
2023-03-06T06:03:26.715Z,41.15
2023-03-06T06:06:11.510Z,40.67
2023-03-06T06:08:56.273Z,41.01
2023-03-06T06:11:40.983Z,40.19
2023-03-06T06:14:25.742Z,39.37
2023-03-06T06:17:10.485Z,38.81
2023-03-06T06:19:55.273Z,39.21
2023-03-06T06:22:40.162Z,39.40
2023-03-06T06:25:24.964Z,39.92
2023-03-06T06:28:09.546Z,39.12
2023-03-06T06:30:54.273Z,37.99
2023-03-06T06:33:38.908Z,38.04
2023-03-06T06:36:23.676Z,37.44
2023-03-06T06:39:08.489Z,37.07
2023-03-06T06:42:14.719Z,37.47
2023-03-06T06:44:58.331Z,38.34
2023-03-06T06:47:43.072Z,38.13
2023-03-06T06:50:27.999Z,38.68
2023-03-06T06:53:12.874Z,38.94
2023-03-06T06:55:57.676Z,37.46
2023-03-06T06:58:42.543Z,37.49
2023-03-06T07:01:27.311Z,36.84
2023-03-06T07:04:12.286Z,35.92
2023-03-06T07:06:57.287Z,36.07
2023-03-06T07:09:42.125Z,34.68
2023-03-06T07:12:26.926Z,33.05
2023-03-06T07:15:11.709Z,32.69
2023-03-06T07:17:56.370Z,31.36
2023-03-06T07:20:41.254Z,29.06
2023-03-06T07:23:26.126Z,29.37
2023-03-06T07:26:10.750Z,27.82
2023-03-06T07:28:55.564Z,27.56
2023-03-06T07:31:40.215Z,28.12
2023-03-06T07:34:24.981Z,26.58
2023-03-06T07:37:09.640Z,26.29
2023-03-06T07:39:54.493Z,26.56
2023-03-06T07:42:39.213Z,28.73
2023-03-06T07:45:24.042Z,31.07
2023-03-06T07:48:08.875Z,30.59
2023-03-06T07:50:53.599Z,30.77
2023-03-06T07:53:38.466Z,31.18
2023-03-06T07:56:23.133Z,32.06
2023-03-06T07:59:08.013Z,34.15
2023-03-06T08:01:52.589Z,34.17
2023-03-06T08:04:37.442Z,33.86
2023-03-06T08:07:22.105Z,35.44
2023-03-06T08:10:06.975Z,35.11
2023-03-06T08:12:51.611Z,34.40
2023-03-06T08:15:36.476Z,34.31
2023-03-06T08:18:21.217Z,32.83
2023-03-06T08:21:05.905Z,33.97
2023-03-06T08:23:50.797Z,32.01
2023-03-06T08:26:35.378Z,30.33
2023-03-06T08:29:20.186Z,31.44
2023-03-06T08:32:04.897Z,31.76
2023-03-06T08:34:49.738Z,33.73
2023-03-06T08:37:34.443Z,32.30
2023-03-06T08:40:19.088Z,32.69
2023-03-06T08:43:03.776Z,33.69
2023-03-06T08:45:48.716Z,34.39
2023-03-06T08:48:33.418Z,35.59
2023-03-06T08:51:18.062Z,36.25
2023-03-06T08:54:02.788Z,37.05
2023-03-06T08:56:47.588Z,37.40
2023-03-06T08:59:32.345Z,37.28
2023-03-06T09:02:17.164Z,39.60
2023-03-06T09:05:01.915Z,37.93
2023-03-06T09:07:46.732Z,36.14
2023-03-06T09:10:31.668Z,35.93
2023-03-06T09:13:16.250Z,35.93
2023-03-06T09:16:01.114Z,36.58
2023-03-06T09:18:45.936Z,38.02
2023-03-06T09:21:30.834Z,36.40
2023-03-06T09:24:15.710Z,36.99
2023-03-06T09:27:00.357Z,36.19
2023-03-06T09:29:45.212Z,37.27
2023-03-06T09:32:29.841Z,36.06
2023-03-06T09:35:14.598Z,36.50
2023-03-06T09:37:59.328Z,36.39
2023-03-06T09:40:44.303Z,36.04
2023-03-06T09:43:29.068Z,34.49
2023-03-06T09:46:13.870Z,34.12
2023-03-06T09:48:58.606Z,34.74
2023-03-06T09:51:43.509Z,35.47
2023-03-06T09:54:28.306Z,37.73
2023-03-06T09:57:13.139Z,36.93
2023-03-06T09:59:58.133Z,38.73
2023-03-06T10:02:42.939Z,39.11
2023-03-06T10:05:27.737Z,40.20
2023-03-06T10:08:12.375Z,41.30
2023-03-06T10:10:57.133Z,41.42
2023-03-06T10:13:41.916Z,39.97
2023-03-06T10:16:26.745Z,41.03
2023-03-06T10:19:11.372Z,40.81
2023-03-06T10:21:56.171Z,41.01
2023-03-06T10:24:40.833Z,40.13
2023-03-06T10:27:25.627Z,39.75
2023-03-06T10:30:10.502Z,40.51
2023-03-06T10:32:55.355Z,39.51
2023-03-06T10:35:40.094Z,39.20
2023-03-06T10:38:24.808Z,39.38
2023-03-06T10:41:09.559Z,39.96
2023-03-06T10:43:54.439Z,40.09
2023-03-06T10:46:39.253Z,40.72
2023-03-06T10:49:23.901Z,39.39
2023-03-06T10:52:08.745Z,39.89
2023-03-06T10:54:53.601Z,39.07
2023-03-06T10:57:38.276Z,39.97
2023-03-06T11:00:23.131Z,40.44
2023-03-06T11:03:07.858Z,39.74
2023-03-06T11:05:52.782Z,38.61
2023-03-06T11:08:37.508Z,38.40
2023-03-06T11:11:36.541Z,39.17
2023-03-06T11:14:21.969Z,37.28
2023-03-06T11:17:06.607Z,37.83
2023-03-06T11:19:51.231Z,37.79
2023-03-06T11:22:36.037Z,37.32
2023-03-06T11:25:20.811Z,38.48
2023-03-06T11:28:05.564Z,39.33
2023-03-06T11:30:50.391Z,39.93
2023-03-06T11:33:35.084Z,40.91
2023-03-06T11:36:19.993Z,40.47
2023-03-06T11:39:04.769Z,39.96
2023-03-06T11:41:49.467Z,39.45
2023-03-06T11:44:34.293Z,38.23
2023-03-06T11:47:19.175Z,37.68
2023-03-06T11:50:03.848Z,38.01
2023-03-06T11:52:48.725Z,39.50
2023-03-06T11:55:33.555Z,38.87
2023-03-06T11:58:18.261Z,37.85
2023-03-06T12:01:02.987Z,38.72
2023-03-06T12:03:47.826Z,38.36
2023-03-06T12:06:32.569Z,37.57
2023-03-06T12:09:17.097Z,37.58
2023-03-06T12:12:01.838Z,36.97
2023-03-06T12:14:46.556Z,37.87
2023-03-06T12:17:31.288Z,38.59
2023-03-06T12:20:15.943Z,37.21
2023-03-06T12:23:14.512Z,38.31
2023-03-06T12:26:00.346Z,36.64
2023-03-06T12:28:46.482Z,35.82
2023-03-06T12:31:31.416Z,35.87
2023-03-06T12:34:16.139Z,35.30
2023-03-06T12:37:01.030Z,34.64
2023-03-06T12:39:45.706Z,35.75
2023-03-06T12:42:30.472Z,36.05
2023-03-06T12:45:15.132Z,35.13
2023-03-06T12:47:59.921Z,34.97
2023-03-06T12:50:44.573Z,36.23
2023-03-06T12:53:29.355Z,35.53
2023-03-06T12:56:14.029Z,35.02
2023-03-06T12:58:58.694Z,36.26
2023-03-06T13:01:43.536Z,36.58
2023-03-06T13:04:28.180Z,35.20
2023-03-06T13:07:13.105Z,36.65
2023-03-06T13:09:57.809Z,37.52
2023-03-06T13:12:42.535Z,36.85
2023-03-06T13:15:27.176Z,37.04
2023-03-06T13:18:11.829Z,36.89
2023-03-06T13:20:56.449Z,36.49
2023-03-06T13:23:41.968Z,32.76
2023-03-06T13:26:27.119Z,34.42
2023-03-06T13:29:11.806Z,34.86
2023-03-06T13:31:56.670Z,37.03
2023-03-06T13:34:41.315Z,37.37
2023-03-06T13:37:26.100Z,36.24
2023-03-06T13:40:10.767Z,35.70
2023-03-06T13:42:55.482Z,35.84
2023-03-06T13:45:40.296Z,35.66
2023-03-06T13:48:42.990Z,34.22
2023-03-06T13:51:29.647Z,34.12
2023-03-06T13:54:14.526Z,34.90
2023-03-06T13:56:59.163Z,34.79
2023-03-06T13:59:43.947Z,34.41
2023-03-06T14:02:28.801Z,34.84
2023-03-06T14:05:13.363Z,34.53
2023-03-06T14:07:58.311Z,34.05
2023-03-06T14:10:43.117Z,33.54
2023-03-06T14:13:32.340Z,33.64
2023-03-06T14:16:23.368Z,33.75
2023-03-06T14:19:08.150Z,34.27
2023-03-06T14:21:52.914Z,34.28
2023-03-06T14:24:37.704Z,33.44
2023-03-06T14:27:22.569Z,32.46
2023-03-06T14:30:07.392Z,32.88
2023-03-06T14:32:52.200Z,32.11
2023-03-06T14:35:37.001Z,32.39
2023-03-06T14:38:21.664Z,31.88
2023-03-06T14:41:06.453Z,30.54
2023-03-06T14:43:51.325Z,31.36
2023-03-06T14:46:36.135Z,31.41
2023-03-06T14:49:20.904Z,32.09
2023-03-06T14:52:05.597Z,31.45
2023-03-06T14:54:50.342Z,31.41
2023-03-06T14:57:34.977Z,30.23
2023-03-06T15:00:19.777Z,30.51
2023-03-06T15:03:04.994Z,30.93
2023-03-06T15:05:49.659Z,30.41
2023-03-06T15:08:34.462Z,30.69
2023-03-06T15:11:19.117Z,31.23
2023-03-06T15:14:04.091Z,30.27
2023-03-06T15:16:48.683Z,30.61
2023-03-06T15:19:33.476Z,30.24
2023-03-06T15:22:18.276Z,31.13
2023-03-06T15:25:03.092Z,31.63
2023-03-06T15:27:47.801Z,31.85
2023-03-06T15:30:32.407Z,31.67
2023-03-06T15:33:17.127Z,31.23
2023-03-06T15:36:01.994Z,31.68
2023-03-06T15:38:47.235Z,31.15
2023-03-06T15:41:31.873Z,30.85
2023-03-06T15:44:16.718Z,31.04
2023-03-06T15:47:09.319Z,30.47
2023-03-06T15:49:54.692Z,31.07
2023-03-06T15:52:39.618Z,32.06
2023-03-06T15:55:24.409Z,31.83
2023-03-06T15:58:09.104Z,32.06
2023-03-06T16:00:53.922Z,32.50
2023-03-06T16:03:39.750Z,32.58
2023-03-06T16:06:24.558Z,32.18
2023-03-06T16:09:09.419Z,33.57
2023-03-06T16:11:53.985Z,32.58
2023-03-06T16:14:38.757Z,31.96
2023-03-06T16:17:23.587Z,30.96
2023-03-06T16:20:08.377Z,31.60
2023-03-06T16:22:53.133Z,32.88
2023-03-06T16:25:37.798Z,32.20
2023-03-06T16:28:22.562Z,31.93
2023-03-06T16:31:07.320Z,31.90
2023-03-06T16:33:51.949Z,32.36
2023-03-06T16:36:36.798Z,32.36
2023-03-06T16:39:21.549Z,33.64
2023-03-06T16:42:06.462Z,32.64
2023-03-06T16:44:51.281Z,32.78
2023-03-06T16:47:36.534Z,33.23
2023-03-06T16:50:21.219Z,33.29
2023-03-06T16:53:05.968Z,33.72
2023-03-06T16:55:50.814Z,34.11
2023-03-06T16:58:35.736Z,34.04
2023-03-06T17:01:20.656Z,34.45
2023-03-06T17:04:05.885Z,34.84
2023-03-06T17:06:50.716Z,34.33
2023-03-06T17:09:35.559Z,34.36
2023-03-06T17:12:20.472Z,33.55
2023-03-06T17:15:05.193Z,33.62
2023-03-06T17:17:49.964Z,34.19
2023-03-06T17:20:34.827Z,34.02
2023-03-06T17:23:19.777Z,34.08
2023-03-06T17:26:05.056Z,34.57
2023-03-06T17:28:50.270Z,34.31
2023-03-06T17:31:35.153Z,33.95
2023-03-06T17:34:19.892Z,34.05
2023-03-06T17:37:04.736Z,34.37
2023-03-06T17:39:49.254Z,34.71
2023-03-06T17:42:34.196Z,35.33
2023-03-06T17:45:19.019Z,35.40
2023-03-06T17:48:03.768Z,35.43
2023-03-06T17:50:48.638Z,35.89
2023-03-06T17:53:33.346Z,35.26
2023-03-06T17:56:18.248Z,34.91
2023-03-06T17:59:03.018Z,34.54
2023-03-06T18:01:47.894Z,34.07
2023-03-06T18:04:33.006Z,34.28
2023-03-06T18:07:17.775Z,33.46
2023-03-06T18:10:02.576Z,33.49
2023-03-06T18:12:47.401Z,33.60
2023-03-06T18:15:32.232Z,33.89
2023-03-06T18:18:17.140Z,33.52
2023-03-06T18:21:02.075Z,33.06
2023-03-06T18:23:46.784Z,33.35
2023-03-06T18:26:31.722Z,33.59
2023-03-06T18:29:16.473Z,33.68
2023-03-06T18:32:02.139Z,33.96
2023-03-06T18:34:47.296Z,33.81
2023-03-06T18:37:32.039Z,34.65
2023-03-06T18:40:16.945Z,33.84
2023-03-06T18:43:01.663Z,34.09
2023-03-06T18:45:46.486Z,33.60
2023-03-06T18:48:31.081Z,34.54
2023-03-06T18:51:15.926Z,34.30
2023-03-06T18:54:00.648Z,34.20
2023-03-06T18:56:45.418Z,34.07
2023-03-06T18:59:30.064Z,34.13
2023-03-06T19:02:14.941Z,33.83
2023-03-06T19:04:59.695Z,34.07
2023-03-06T19:07:44.396Z,33.80
2023-03-06T19:10:29.226Z,34.29
2023-03-06T19:13:14.024Z,34.45
2023-03-06T19:15:58.897Z,35.07
2023-03-06T19:18:43.693Z,34.59
2023-03-06T19:21:28.497Z,34.67
2023-03-06T19:24:13.259Z,34.56
2023-03-06T19:26:58.006Z,34.59
2023-03-06T19:29:42.717Z,34.51
2023-03-06T19:32:27.638Z,35.03
2023-03-06T19:35:12.476Z,34.71
2023-03-06T19:37:57.168Z,35.30
2023-03-06T19:40:42.244Z,35.07
2023-03-06T19:43:26.978Z,35.17
2023-03-06T19:46:12.094Z,35.30
2023-03-06T19:48:57.278Z,34.76
2023-03-06T19:51:42.418Z,34.67
2023-03-06T19:54:27.150Z,35.87
2023-03-06T19:57:12.165Z,35.65
2023-03-06T19:59:58.643Z,35.22
2023-03-06T20:02:43.679Z,35.44
2023-03-06T20:05:28.622Z,35.24
2023-03-06T20:08:13.383Z,35.84
2023-03-06T20:10:58.274Z,35.69
2023-03-06T20:13:47.548Z,36.52
2023-03-06T20:16:32.718Z,36.33
2023-03-06T20:19:17.632Z,36.45
2023-03-06T20:22:02.355Z,36.15
2023-03-06T20:24:47.270Z,36.26
2023-03-06T20:27:31.955Z,36.17
2023-03-06T20:30:16.752Z,36.56
2023-03-06T20:33:01.711Z,36.54
2023-03-06T20:35:46.509Z,35.75
2023-03-06T20:38:31.279Z,35.62
2023-03-06T20:41:15.962Z,36.20
2023-03-06T20:44:00.740Z,35.77
2023-03-06T20:46:45.455Z,35.58
2023-03-06T20:49:30.766Z,36.17
2023-03-06T20:52:15.462Z,36.61
2023-03-06T20:55:00.392Z,36.31
2023-03-06T20:57:45.229Z,36.94
2023-03-06T21:00:29.945Z,37.48
2023-03-06T21:03:14.790Z,37.23
2023-03-06T21:05:59.527Z,36.59
2023-03-06T21:08:44.563Z,36.98
2023-03-06T21:11:29.465Z,37.87
2023-03-06T21:14:14.534Z,37.17
2023-03-06T21:16:59.142Z,37.55
2023-03-06T21:19:44.065Z,38.28
2023-03-06T21:22:29.368Z,38.04
2023-03-06T21:25:14.691Z,37.68
2023-03-06T21:27:59.971Z,37.31
2023-03-06T21:30:44.709Z,37.34
2023-03-06T21:33:29.491Z,38.09
2023-03-06T21:36:14.176Z,37.45
2023-03-06T21:38:59.007Z,38.18
2023-03-06T21:41:43.718Z,38.07
2023-03-06T21:44:28.502Z,39.09
2023-03-06T21:47:13.280Z,39.76
2023-03-06T21:49:58.013Z,38.97
2023-03-06T21:52:42.842Z,38.43
2023-03-06T21:55:27.521Z,38.25
2023-03-06T21:58:12.321Z,38.22
2023-03-06T22:00:57.022Z,38.42
2023-03-06T22:03:41.973Z,39.03
2023-03-06T22:06:26.717Z,39.40
2023-03-06T22:09:11.508Z,39.68
2023-03-06T22:11:56.281Z,39.08
2023-03-06T22:14:41.109Z,39.90
2023-03-06T22:17:25.952Z,40.25
2023-03-06T22:20:10.719Z,40.39
2023-03-06T22:22:55.606Z,40.26
2023-03-06T22:25:40.417Z,40.62
2023-03-06T22:28:25.178Z,39.40
2023-03-06T22:31:09.880Z,39.43
2023-03-06T22:33:54.799Z,39.20
2023-03-06T22:36:39.548Z,39.89
2023-03-06T22:39:24.333Z,41.04
2023-03-06T22:42:09.076Z,41.24
2023-03-06T22:44:53.801Z,40.66
2023-03-06T22:47:38.538Z,42.23
2023-03-06T22:50:23.180Z,41.91
2023-03-06T22:53:07.930Z,40.94
2023-03-06T22:55:52.607Z,40.49
2023-03-06T22:58:37.545Z,40.37
2023-03-06T23:01:22.190Z,40.43
2023-03-06T23:04:07.058Z,40.77
2023-03-06T23:06:51.783Z,41.14
2023-03-06T23:09:36.466Z,42.10
2023-03-06T23:12:21.169Z,42.72
2023-03-06T23:15:05.906Z,42.93
2023-03-06T23:17:50.643Z,42.05
2023-03-06T23:20:35.406Z,40.87
2023-03-06T23:23:20.268Z,40.34
2023-03-06T23:26:04.952Z,40.94
2023-03-06T23:28:50.005Z,41.03
2023-03-06T23:31:34.767Z,43.79
2023-03-06T23:34:19.533Z,42.91
2023-03-06T23:37:04.255Z,43.67
2023-03-06T23:39:49.026Z,44.68
2023-03-06T23:42:33.737Z,44.44
2023-03-06T23:45:18.553Z,44.49
2023-03-06T23:48:03.334Z,44.35
2023-03-06T23:50:48.073Z,42.82
2023-03-06T23:53:32.919Z,43.03
2023-03-06T23:56:17.664Z,42.96
2023-03-06T23:59:02.530Z,42.50
